Palmyra, Indiana
Current Conditions -  °F | °C
As of 11:56 AM on Friday 28 Nov 2014 (Local Time) from KSDF Reporting Station
Overcast Overcast  
Wind Chill: 27°   Ceiling: 12000
Heat Index: 34°   Visibility: 10mi
Dew Point: 22°   Wind: 8mph
Humidity: 61%   Direction: 160°SSE
Pressure: 30.36"   Gusts: NA
Location:  38.41°N, 86.11°W
Report Text: KSDF 281656Z 16007KT 10SM BKN120 OVC200 01/M06 A3036 RMK AO2 SLP286 T00111056
Loading
Personal Weather Stations






























Interactive Weather Map New forecast layout! Learn more

10-Day Weather Forecast

Advertisements
Track Severe Weather on mobile